Terminal Aerodrome Forecast
Issued by NWS Charleston, WV

Current Version | Previous Version | Text Only | Print | Product List | Glossary Off
Versions: 1 2 3 4 5 6 7 8 9 10 11 12 13 14 15 16 17 18 19 20 21

000
FTUS41 KRLX 211500 AAA
TAFPKB
TAF AMD
KPKB 211507Z 2115/2212 VRB03KT P6SM BKN040
     FM212200 00000KT P6SM SCT040
     FM220100 00000KT P6SM SCT250
     FM221100 13003KT P6SM BKN070=

USA.gov is the U.S. government's official web portal to all federal, state and local government web resources and services.